Time;durP1;ratioP1;P1;durP2;ratioP2;P2;SDS_P1;SDS_P2;PMS_P1;PMS_P2;Temp;Humidity;BMP_temperature;BMP_pressure;BME280_temperature;BME280_humidity;BME280_pressure;Samples;Min_cycle;Max_cycle;Signal;HPM_P1;HPM_P2
2024/02/13 00:00:13;;;;;;;3.50;1.23;;;7.70;70.40;;;;;;5075347;28;20717;-69
2024/02/13 00:02:41;;;;;;;2.78;1.20;;;7.70;70.40;;;;;;5076000;28;20240;-69
2024/02/13 00:05:09;;;;;;;3.10;1.40;;;7.70;70.20;;;;;;5075270;28;20210;-69
2024/02/13 00:07:38;;;;;;;2.08;0.90;;;7.80;70.00;;;;;;5075842;28;20746;-69
2024/02/13 00:10:09;;;;;;;2.85;1.25;;;7.70;70.10;;;;;;5075812;28;20194;-68
2024/02/13 00:12:36;;;;;;;3.15;1.30;;;7.70;70.00;;;;;;5075464;28;20191;-67
2024/02/13 00:15:03;;;;;;;3.88;1.83;;;7.80;70.10;;;;;;5075481;28;20198;-68
2024/02/13 00:17:33;;;;;;;3.15;1.50;;;7.80;69.60;;;;;;5075546;28;20198;-68
2024/02/13 00:20:03;;;;;;;2.97;1.40;;;7.80;69.90;;;;;;5075547;28;20549;-68
2024/02/13 00:22:32;;;;;;;3.92;1.80;;;7.80;69.60;;;;;;5075388;28;20181;-68
2024/02/13 00:25:00;;;;;;;4.15;1.58;;;7.80;69.20;;;;;;5075539;28;20253;-68
2024/02/13 00:27:27;;;;;;;3.10;1.45;;;7.80;69.00;;;;;;5075308;28;20544;-67
2024/02/13 00:29:54;;;;;;;3.45;1.30;;;7.80;68.80;;;;;;5075254;28;20659;-68
2024/02/13 00:32:21;;;;;;;2.95;1.85;;;7.80;69.10;;;;;;5075214;28;20236;-68
2024/02/13 00:34:50;;;;;;;5.72;1.33;;;7.80;69.10;;;;;;5075362;28;20208;-68
2024/02/13 00:37:19;;;;;;;3.03;1.48;;;7.90;68.80;;;;;;5074517;28;20240;-67
2024/02/13 00:39:46;;;;;;;3.60;1.30;;;7.80;68.40;;;;;;5074606;28;20186;-68
2024/02/13 00:42:14;;;;;;;3.63;1.20;;;7.90;68.60;;;;;;5074089;28;20217;-68
2024/02/13 00:44:41;;;;;;;3.03;1.50;;;7.90;68.50;;;;;;5074502;28;20222;-68
2024/02/13 00:47:08;;;;;;;2.47;0.95;;;7.90;68.20;;;;;;5075127;28;20194;-68
2024/02/13 00:49:37;;;;;;;3.65;1.50;;;7.90;67.80;;;;;;5075150;28;20633;-68
2024/02/13 00:52:07;;;;;;;3.00;1.05;;;7.90;67.70;;;;;;5074730;28;20190;-69
2024/02/13 00:54:35;;;;;;;2.72;1.38;;;7.90;67.40;;;;;;5074910;28;20206;-68
2024/02/13 00:57:03;;;;;;;3.40;1.40;;;7.90;67.30;;;;;;5074253;28;20197;-67
2024/02/13 00:59:31;;;;;;;3.10;1.38;;;7.90;67.10;;;;;;5074489;28;20201;-68
2024/02/13 01:02:02;;;;;;;5.53;1.30;;;7.90;67.40;;;;;;5074535;28;20236;-68
2024/02/13 01:04:29;;;;;;;4.05;1.60;;;7.90;67.90;;;;;;5074496;28;20181;-67
2024/02/13 01:06:57;;;;;;;5.63;1.55;;;7.90;67.50;;;;;;5074850;28;20190;-68
2024/02/13 01:09:26;;;;;;;2.75;1.30;;;7.90;67.70;;;;;;5074252;28;20189;-68
2024/02/13 01:11:53;;;;;;;7.30;2.63;;;7.90;67.80;;;;;;5054497;28;20194;-68
2024/02/13 01:14:20;;;;;;;4.05;1.60;;;7.90;68.20;;;;;;5054412;28;20195;-68
2024/02/13 01:16:48;;;;;;;3.38;1.63;;;7.90;68.20;;;;;;5054642;28;20199;-68
2024/02/13 01:19:17;;;;;;;2.90;1.63;;;7.90;67.70;;;;;;5054432;28;20197;-68
2024/02/13 01:21:45;;;;;;;3.78;1.40;;;7.90;67.60;;;;;;5054550;28;20234;-68
2024/02/13 01:24:12;;;;;;;4.35;1.85;;;7.90;67.50;;;;;;5055089;28;20195;-68
2024/02/13 01:26:43;;;;;;;4.45;1.33;;;7.90;67.60;;;;;;5074354;28;20224;-68
2024/02/13 01:29:11;;;;;;;2.67;1.50;;;7.90;67.60;;;;;;5073979;28;20174;-68
2024/02/13 01:31:39;;;;;;;3.20;1.50;;;7.90;67.80;;;;;;5074295;28;20204;-68
2024/02/13 01:34:08;;;;;;;5.30;1.98;;;7.90;67.80;;;;;;5073939;28;20197;-68
2024/02/13 01:36:37;;;;;;;4.97;1.90;;;7.90;68.10;;;;;;5073966;28;20247;-68
2024/02/13 01:39:04;;;;;;;2.47;1.45;;;7.90;68.30;;;;;;5073976;28;20186;-68
2024/02/13 01:41:31;;;;;;;4.82;2.03;;;7.90;68.30;;;;;;5073592;28;20221;-68
2024/02/13 01:44:03;;;;;;;5.22;1.30;;;7.90;68.30;;;;;;5073801;28;20194;-68
2024/02/13 01:46:31;;;;;;;2.90;1.30;;;7.90;68.00;;;;;;5073876;28;20224;-68
2024/02/13 01:49:00;;;;;;;3.53;1.45;;;7.90;67.80;;;;;;5073902;28;20194;-68
2024/02/13 01:51:30;;;;;;;4.22;1.60;;;7.90;67.90;;;;;;5074016;28;20273;-68
2024/02/13 01:54:00;;;;;;;3.42;1.90;;;7.90;67.80;;;;;;5073367;28;20193;-68
2024/02/13 01:56:29;;;;;;;3.55;1.85;;;7.90;67.80;;;;;;5073597;28;20668;-68
2024/02/13 01:58:58;;;;;;;3.58;1.58;;;7.90;67.90;;;;;;5073823;28;20217;-68
2024/02/13 02:01:29;;;;;;;4.25;1.63;;;7.90;67.80;;;;;;5073910;28;20270;-68
2024/02/13 02:04:00;;;;;;;4.45;1.90;;;7.90;67.70;;;;;;5073503;28;20190;-68
2024/02/13 02:06:27;;;;;;;5.55;2.13;;;7.90;67.40;;;;;;5073733;28;20255;-68
2024/02/13 02:08:56;;;;;;;3.47;1.50;;;7.90;67.70;;;;;;5073497;28;20236;-68
2024/02/13 02:11:25;;;;;;;4.50;1.70;;;7.90;68.00;;;;;;5073449;28;20183;-68
2024/02/13 02:13:52;;;;;;;5.28;1.90;;;7.90;67.90;;;;;;5073458;28;20644;-68
2024/02/13 02:16:19;;;;;;;3.35;1.73;;;7.80;67.80;;;;;;5073700;28;20202;-68
2024/02/13 02:18:48;;;;;;;4.85;3.22;;;7.80;67.80;;;;;;5073265;28;20186;-69
2024/02/13 02:21:17;;;;;;;4.20;2.60;;;7.80;68.10;;;;;;5073434;28;20273;-69
2024/02/13 02:23:46;;;;;;;4.05;2.15;;;7.80;68.20;;;;;;5073481;28;20274;-68
2024/02/13 02:26:15;;;;;;;2.95;1.55;;;7.80;68.30;;;;;;5073053;28;20217;-68
2024/02/13 02:28:43;;;;;;;2.95;1.60;;;7.80;68.40;;;;;;5053672;28;20195;-69
2024/02/13 02:31:14;;;;;;;3.55;1.70;;;7.80;68.30;;;;;;5071232;28;20190;-68
2024/02/13 02:33:42;;;;;;;4.75;1.65;;;7.80;68.30;;;;;;5073393;28;20178;-68
2024/02/13 02:36:10;;;;;;;2.97;1.63;;;7.80;68.40;;;;;;5073416;28;20314;-68
2024/02/13 02:38:38;;;;;;;4.57;2.55;;;7.80;68.60;;;;;;5072924;28;20190;-68
2024/02/13 02:41:06;;;;;;;5.60;2.80;;;7.80;68.30;;;;;;5073121;28;20225;-69
2024/02/13 02:43:37;;;;;;;6.88;3.10;;;7.80;68.10;;;;;;5073583;28;20557;-69
2024/02/13 02:46:04;;;;;;;5.45;2.30;;;7.80;68.30;;;;;;5073047;28;20232;-68
2024/02/13 02:48:32;;;;;;;4.43;1.80;;;7.80;68.60;;;;;;5073593;28;20291;-68
2024/02/13 02:50:59;;;;;;;6.05;2.00;;;7.80;68.70;;;;;;5073429;28;20194;-68
2024/02/13 02:53:29;;;;;;;8.90;3.97;;;7.80;68.70;;;;;;5073199;28;20637;-68
2024/02/13 02:55:57;;;;;;;4.35;2.00;;;7.80;68.80;;;;;;5072836;28;20200;-68
2024/02/13 02:58:24;;;;;;;3.92;2.15;;;7.80;68.80;;;;;;5073019;28;20194;-68
2024/02/13 03:00:53;;;;;;;3.97;1.83;;;7.80;68.80;;;;;;5073009;28;20193;-68
2024/02/13 03:03:22;;;;;;;2.80;1.45;;;7.80;68.70;;;;;;5077055;28;20198;-68
2024/02/13 03:05:50;;;;;;;3.60;2.08;;;7.80;68.60;;;;;;5076690;28;20220;-69
2024/02/13 03:08:17;;;;;;;3.72;2.00;;;7.80;68.20;;;;;;5056682;28;20191;-69
2024/02/13 03:10:44;;;;;;;7.40;2.00;;;7.80;68.40;;;;;;5056653;28;20703;-68
2024/02/13 03:13:13;;;;;;;2.80;1.70;;;7.80;68.60;;;;;;5056960;28;20187;-68
2024/02/13 03:15:40;;;;;;;3.88;2.00;;;7.80;68.60;;;;;;5056795;28;20195;-68
2024/02/13 03:18:09;;;;;;;4.32;1.58;;;7.80;68.70;;;;;;5056460;28;20218;-68
2024/02/13 03:20:37;;;;;;;5.63;1.95;;;7.80;68.70;;;;;;5057152;28;20198;-68
2024/02/13 03:23:04;;;;;;;3.30;1.73;;;7.80;68.70;;;;;;5076332;28;20190;-68
2024/02/13 03:25:32;;;;;;;6.15;1.45;;;7.80;68.60;;;;;;5076676;28;20213;-68
2024/02/13 03:27:59;;;;;;;6.00;1.70;;;7.80;68.60;;;;;;5076279;28;20190;-68
2024/02/13 03:30:26;;;;;;;5.10;1.75;;;7.80;68.80;;;;;;5076615;28;20267;-68
2024/02/13 03:32:53;;;;;;;4.60;1.88;;;7.80;69.00;;;;;;5076249;28;20644;-68
2024/02/13 03:35:22;;;;;;;2.90;1.67;;;7.80;68.90;;;;;;5075935;28;20194;-68
2024/02/13 03:37:49;;;;;;;3.25;1.67;;;7.90;68.90;;;;;;5076226;28;20538;-68
2024/02/13 03:40:17;;;;;;;3.20;1.77;;;7.90;69.00;;;;;;5076307;28;20225;-68
2024/02/13 03:42:44;;;;;;;3.17;1.70;;;7.90;68.60;;;;;;5076462;28;20179;-68
2024/02/13 03:45:12;;;;;;;3.50;1.75;;;7.90;68.50;;;;;;5075887;28;20550;-68
2024/02/13 03:47:39;;;;;;;5.22;1.80;;;7.90;68.40;;;;;;5075949;28;20186;-68
2024/02/13 03:50:08;;;;;;;6.10;1.70;;;7.90;68.30;;;;;;5076163;28;20186;-68
2024/02/13 03:52:37;;;;;;;2.33;1.40;;;7.90;68.30;;;;;;5076577;28;20639;-68
2024/02/13 03:55:05;;;;;;;4.35;1.48;;;8.00;68.40;;;;;;5076282;28;20194;-68
2024/02/13 03:57:32;;;;;;;4.60;1.85;;;7.90;68.40;;;;;;5075727;28;20209;-68
2024/02/13 04:00:00;;;;;;;4.43;1.65;;;7.90;68.20;;;;;;5076054;28;20615;-68
2024/02/13 04:02:28;;;;;;;3.85;1.30;;;7.90;68.10;;;;;;5076039;28;20197;-68
2024/02/13 04:04:55;;;;;;;3.70;1.67;;;7.90;67.90;;;;;;5075968;28;20186;-69
2024/02/13 04:07:23;;;;;;;4.55;1.45;;;7.90;67.30;;;;;;5075581;28;20220;-69
2024/02/13 04:09:51;;;;;;;3.72;1.80;;;7.90;67.20;;;;;;5076375;28;20190;-69
2024/02/13 04:12:20;;;;;;;4.57;1.80;;;7.90;67.50;;;;;;5076128;28;20209;-69
2024/02/13 04:14:49;;;;;;;5.35;1.55;;;8.00;67.60;;;;;;5075562;28;20190;-69
2024/02/13 04:17:17;;;;;;;3.20;1.40;;;8.00;67.50;;;;;;5075799;28;20618;-68
2024/02/13 04:19:45;;;;;;;4.47;1.90;;;7.90;67.50;;;;;;5075953;28;20212;-68
2024/02/13 04:22:12;;;;;;;5.00;1.85;;;8.00;67.70;;;;;;5075612;28;20218;-68
2024/02/13 04:24:39;;;;;;;3.45;2.13;;;7.90;67.80;;;;;;5075615;28;20229;-68
2024/02/13 04:27:08;;;;;;;4.72;1.75;;;7.90;67.80;;;;;;5075251;28;20206;-68
2024/02/13 04:29:35;;;;;;;3.20;1.70;;;7.90;67.70;;;;;;5075691;28;20194;-69
2024/02/13 04:32:03;;;;;;;4.65;1.85;;;7.90;67.80;;;;;;5075451;28;20201;-68
2024/02/13 04:34:31;;;;;;;5.25;1.80;;;7.90;67.80;;;;;;5075006;28;20198;-68
2024/02/13 04:36:59;;;;;;;3.53;1.55;;;7.90;67.60;;;;;;5075133;28;20200;-68
2024/02/13 04:39:26;;;;;;;2.70;1.40;;;7.90;67.50;;;;;;5075374;28;20186;-68
2024/02/13 04:41:53;;;;;;;5.45;2.10;;;7.90;67.50;;;;;;5074576;28;20214;-68
2024/02/13 04:44:22;;;;;;;5.55;1.98;;;7.90;67.40;;;;;;5074862;28;20193;-68
2024/02/13 04:46:49;;;;;;;5.43;2.03;;;7.90;67.00;;;;;;5074559;28;20202;-68
2024/02/13 04:49:16;;;;;;;3.47;1.83;;;7.90;66.50;;;;;;5075168;28;20190;-69
2024/02/13 04:51:44;;;;;;;6.10;2.33;;;7.90;66.20;;;;;;5075011;28;20197;-68
2024/02/13 04:54:11;;;;;;;3.97;1.88;;;7.90;66.20;;;;;;5074806;28;20202;-69
2024/02/13 04:56:40;;;;;;;8.07;1.98;;;7.90;66.10;;;;;;5074810;28;20194;-68
2024/02/13 04:59:14;;;;;;;5.00;1.85;;;7.80;66.30;;;;;;5075013;28;20285;-69
2024/02/13 05:01:45;;;;;;;3.58;1.70;;;7.80;66.30;;;;;;5074376;28;20213;-69
2024/02/13 05:09:41;;;;;;;5.00;2.33;;;7.70;66.30;;;;;;5054728;28;20652;-68
2024/02/13 05:12:09;;;;;;;9.32;3.53;;;7.60;66.40;;;;;;5054925;28;20281;-68
2024/02/13 05:14:36;;;;;;;8.48;3.72;;;7.60;66.60;;;;;;5054801;28;20195;-68
2024/02/13 05:17:05;;;;;;;6.95;4.15;;;7.50;66.70;;;;;;5060724;28;20741;-68
2024/02/13 05:19:32;;;;;;;7.65;3.65;;;7.50;66.80;;;;;;5074612;28;20197;-68
2024/02/13 05:21:59;;;;;;;7.13;3.20;;;7.50;66.80;;;;;;5074616;28;20511;-69
2024/02/13 05:24:27;;;;;;;6.70;3.35;;;7.50;66.90;;;;;;5073219;28;20182;-68
2024/02/13 05:26:54;;;;;;;5.10;2.60;;;7.50;66.90;;;;;;5074627;28;20214;-68
2024/02/13 05:29:21;;;;;;;5.93;2.33;;;7.40;66.90;;;;;;5074321;28;20289;-68
2024/02/13 05:31:51;;;;;;;12.85;2.75;;;7.40;66.80;;;;;;5074238;28;20190;-68
2024/02/13 05:34:20;;;;;;;3.63;1.85;;;7.30;66.90;;;;;;5074066;28;20920;-68
2024/02/13 05:36:48;;;;;;;4.97;2.72;;;7.20;67.40;;;;;;5074030;28;20201;-68
2024/02/13 05:39:15;;;;;;;4.38;2.70;;;7.20;67.90;;;;;;5073965;28;20194;-68
2024/02/13 05:41:43;;;;;;;6.18;2.67;;;7.20;68.30;;;;;;5073809;28;20260;-68
2024/02/13 05:44:11;;;;;;;5.57;2.15;;;7.10;68.60;;;;;;5074048;28;20187;-68
2024/02/13 05:46:38;;;;;;;5.80;3.05;;;7.10;69.00;;;;;;5073592;28;20218;-68
2024/02/13 05:49:05;;;;;;;3.83;2.35;;;7.00;68.80;;;;;;5073443;28;20190;-68
2024/02/13 05:51:34;;;;;;;4.07;2.20;;;7.00;69.50;;;;;;5073769;28;20205;-68
2024/02/13 05:54:04;;;;;;;4.95;2.00;;;6.90;69.60;;;;;;5073605;28;20192;-68
2024/02/13 05:56:32;;;;;;;6.30;2.65;;;6.90;70.00;;;;;;5074271;28;20186;-68
2024/02/13 05:59:00;;;;;;;3.80;2.00;;;6.90;70.30;;;;;;5073251;28;20217;-68
2024/02/13 06:01:28;;;;;;;3.20;2.35;;;6.80;70.40;;;;;;5073457;28;20240;-68
2024/02/13 06:03:57;;;;;;;9.35;2.72;;;6.80;70.50;;;;;;5073900;28;20201;-68
2024/02/13 06:06:25;;;;;;;4.30;3.15;;;6.70;70.50;;;;;;5073808;28;20210;-68
2024/02/13 06:08:54;;;;;;;8.02;3.42;;;6.70;70.60;;;;;;5073846;28;20220;-68
2024/02/13 06:11:23;;;;;;;3.28;2.28;;;6.70;70.70;;;;;;5073484;28;20220;-68
2024/02/13 06:13:50;;;;;;;6.13;2.55;;;6.70;70.40;;;;;;5073601;28;20189;-68
2024/02/13 06:16:18;;;;;;;3.10;2.20;;;6.70;70.70;;;;;;5073478;28;20247;-68
2024/02/13 06:18:47;;;;;;;4.63;2.70;;;6.70;70.50;;;;;;5073064;28;20194;-68
2024/02/13 06:21:18;;;;;;;7.00;2.72;;;6.60;70.40;;;;;;5073680;28;20229;-68
2024/02/13 06:23:45;;;;;;;29.45;13.68;;;6.60;70.60;;;;;;5073842;28;20213;-68
2024/02/13 06:26:15;;;;;;;17.33;6.55;;;6.60;70.60;;;;;;5072743;28;20221;-68
2024/02/13 06:28:42;;;;;;;7.05;3.55;;;6.50;70.50;;;;;;5072852;28;20200;-68
2024/02/13 06:31:09;;;;;;;5.57;3.72;;;6.50;70.60;;;;;;5073036;28;20198;-69
2024/02/13 06:33:38;;;;;;;5.50;3.47;;;6.50;70.70;;;;;;5073324;28;20593;-68
2024/02/13 06:36:07;;;;;;;7.50;3.20;;;6.50;70.70;;;;;;5073666;28;20194;-68
2024/02/13 06:38:35;;;;;;;6.75;3.10;;;6.50;71.00;;;;;;5077067;28;20182;-68
2024/02/13 06:41:05;;;;;;;5.40;2.70;;;6.40;71.00;;;;;;5077036;28;20217;-68
2024/02/13 06:43:35;;;;;;;7.63;2.97;;;6.40;71.00;;;;;;5076278;28;20198;-68
2024/02/13 06:46:02;;;;;;;6.95;3.85;;;6.40;71.10;;;;;;5077030;28;20220;-68
2024/02/13 06:48:34;;;;;;;4.97;2.75;;;6.50;71.10;;;;;;5076828;28;20193;-68
2024/02/13 06:51:02;;;;;;;5.72;2.45;;;6.50;70.90;;;;;;5076804;28;20186;-68
2024/02/13 06:53:31;;;;;;;4.97;2.92;;;6.50;71.20;;;;;;5076707;28;20198;-69
2024/02/13 06:55:58;;;;;;;6.05;2.75;;;6.50;71.30;;;;;;5076808;28;20194;-69
2024/02/13 06:58:25;;;;;;;5.88;2.72;;;6.60;71.40;;;;;;5077170;28;20283;-69
2024/02/13 07:00:54;;;;;;;5.45;2.70;;;6.60;71.60;;;;;;5076340;28;20182;-69
2024/02/13 07:03:21;;;;;;;5.05;2.53;;;6.60;71.60;;;;;;5077044;28;20268;-69
2024/02/13 07:05:48;;;;;;;4.47;2.70;;;6.70;71.90;;;;;;5076519;28;20194;-69
2024/02/13 07:08:15;;;;;;;5.70;3.00;;;6.70;71.30;;;;;;5076904;28;20305;-69
2024/02/13 07:10:42;;;;;;;5.97;3.45;;;6.80;71.20;;;;;;5077046;28;20611;-69
2024/02/13 07:13:09;;;;;;;4.78;2.80;;;6.80;71.10;;;;;;5076767;28;20197;-69
2024/02/13 07:15:37;;;;;;;6.43;2.80;;;6.80;71.00;;;;;;5076582;28;20648;-69
2024/02/13 07:18:06;;;;;;;5.45;2.90;;;6.80;71.30;;;;;;5076515;28;20280;-69
2024/02/13 07:20:34;;;;;;;7.15;2.95;;;6.90;71.00;;;;;;5076788;28;20194;-69
2024/02/13 07:23:02;;;;;;;7.38;2.88;;;6.90;71.10;;;;;;5076659;28;20186;-69
2024/02/13 07:25:29;;;;;;;6.57;2.97;;;7.00;70.90;;;;;;5076182;28;20240;-68
2024/02/13 07:27:57;;;;;;;7.38;2.97;;;7.00;70.50;;;;;;5075033;28;20290;-69
2024/02/13 07:30:30;;;;;;;4.32;2.58;;;7.10;70.40;;;;;;5075502;28;20186;-69
2024/02/13 07:32:57;;;;;;;3.95;2.38;;;7.10;70.10;;;;;;5076353;28;20210;-69
2024/02/13 07:35:29;;;;;;;6.47;2.70;;;7.10;70.10;;;;;;5075044;28;20713;-69
2024/02/13 07:37:58;;;;;;;6.97;2.80;;;7.10;70.40;;;;;;5076045;28;20235;-69
2024/02/13 07:40:31;;;;;;;4.97;2.70;;;7.20;70.70;;;;;;5075612;28;20182;-69
2024/02/13 07:43:02;;;;;;;4.75;2.85;;;7.20;70.70;;;;;;5075744;28;20652;-69
2024/02/13 07:45:31;;;;;;;10.27;2.95;;;7.20;70.50;;;;;;5076396;28;20191;-69
2024/02/13 07:48:01;;;;;;;8.65;2.70;;;7.30;70.40;;;;;;5075637;28;20236;-69
2024/02/13 07:50:29;;;;;;;4.43;2.65;;;7.30;69.90;;;;;;5076377;28;20202;-69
2024/02/13 07:52:57;;;;;;;12.10;4.03;;;7.40;69.70;;;;;;5076079;28;20250;-69
2024/02/13 07:55:32;;;;;;;10.52;3.45;;;7.50;69.00;;;;;;5075736;28;20194;-69
2024/02/13 07:57:59;;;;;;;8.80;3.00;;;7.70;68.70;;;;;;5075986;28;20649;-69
2024/02/13 08:00:29;;;;;;;6.65;3.15;;;7.80;68.60;;;;;;5075961;28;20240;-69
2024/02/13 08:02:56;;;;;;;7.95;3.15;;;8.00;68.50;;;;;;5075608;28;20248;-69
2024/02/13 08:05:23;;;;;;;4.57;2.65;;;8.20;67.70;;;;;;5075446;28;20726;-69
2024/02/13 08:07:52;;;;;;;4.68;1.85;;;8.50;66.90;;;;;;5075486;28;20305;-69
2024/02/13 08:10:26;;;;;;;6.47;3.80;;;8.90;66.10;;;;;;5075445;28;20281;-69
2024/02/13 08:12:56;;;;;;;9.90;3.95;;;9.00;64.20;;;;;;5075421;28;20194;-69
2024/02/13 08:15:30;;;;;;;6.63;2.70;;;9.10;64.70;;;;;;5075816;28;20193;-69
2024/02/13 08:17:58;;;;;;;7.63;3.33;;;9.10;64.20;;;;;;5075675;28;20186;-69
2024/02/13 08:20:27;;;;;;;7.10;3.20;;;9.10;64.20;;;;;;5075647;28;20198;-69
2024/02/13 08:22:56;;;;;;;8.05;5.20;;;9.20;63.80;;;;;;5075526;28;20200;-69
2024/02/13 08:25:28;;;;;;;10.63;3.72;;;9.20;63.10;;;;;;5075488;28;20212;-69
2024/02/13 08:27:56;;;;;;;4.68;2.97;;;9.30;63.70;;;;;;5074962;28;20673;-69
2024/02/13 08:30:23;;;;;;;7.97;3.95;;;9.30;62.90;;;;;;5075718;28;20544;-69
2024/02/13 08:32:51;;;;;;;4.72;2.50;;;9.30;62.00;;;;;;5075296;28;20212;-70
2024/02/13 08:35:19;;;;;;;4.28;2.40;;;9.30;62.30;;;;;;5075022;28;20198;-69
2024/02/13 08:37:51;;;;;;;6.22;2.55;;;9.40;62.40;;;;;;5075376;28;20208;-69
2024/02/13 08:40:20;;;;;;;5.60;2.83;;;9.40;62.00;;;;;;5075290;28;20539;-69
2024/02/13 08:42:48;;;;;;;3.15;1.95;;;9.40;62.20;;;;;;5075338;28;20204;-69
2024/02/13 08:45:15;;;;;;;20.90;10.07;;;9.50;62.40;;;;;;5075007;28;20206;-69
2024/02/13 08:47:43;;;;;;;11.80;6.75;;;9.60;62.80;;;;;;5074585;28;20213;-69
2024/02/13 08:50:12;;;;;;;5.97;4.30;;;9.80;61.10;;;;;;5075213;28;20197;-69
2024/02/13 08:52:39;;;;;;;8.57;4.15;;;9.90;60.00;;;;;;5074965;28;20189;-69
2024/02/13 08:55:13;;;;;;;8.15;4.85;;;10.00;59.20;;;;;;5074572;28;20222;-69
2024/02/13 08:57:42;;;;;;;10.20;3.72;;;10.10;59.40;;;;;;5074831;28;20187;-69
2024/02/13 09:00:10;;;;;;;13.48;4.28;;;10.70;59.70;;;;;;5073930;28;20225;-70
2024/02/13 09:02:37;;;;;;;8.45;3.95;;;11.30;57.50;;;;;;5074360;28;20198;-69
2024/02/13 09:05:04;;;;;;;5.47;3.35;;;12.00;56.40;;;;;;5074750;28;20189;-70
2024/02/13 09:07:31;;;;;;;4.20;2.80;;;12.70;53.80;;;;;;5074715;28;20251;-69
2024/02/13 09:09:59;;;;;;;6.53;2.73;;;13.30;53.00;;;;;;5074477;28;20251;-69
2024/02/13 09:12:26;;;;;;;6.47;2.53;;;13.80;51.50;;;;;;5074136;28;20432;-69
2024/02/13 09:14:55;;;;;;;4.80;2.20;;;14.50;50.20;;;;;;5074179;28;20442;-70
2024/02/13 09:17:24;;;;;;;3.90;2.40;;;15.10;51.70;;;;;;5074154;28;20917;-70
2024/02/13 09:19:51;;;;;;;4.77;1.70;;;16.00;47.00;;;;;;5074065;28;20416;-70
2024/02/13 09:22:18;;;;;;;5.60;2.13;;;16.60;43.60;;;;;;5074439;28;20456;-70
2024/02/13 09:24:50;;;;;;;7.83;2.40;;;17.10;41.90;;;;;;5071372;28;20520;-70
2024/02/13 09:27:17;;;;;;;3.63;2.20;;;17.60;43.10;;;;;;5074661;28;20466;-70
2024/02/13 09:29:44;;;;;;;4.47;1.70;;;18.20;42.30;;;;;;5074138;28;20533;-70
2024/02/13 09:32:14;;;;;;;4.70;1.60;;;18.40;38.30;;;;;;5073707;28;20474;-70
2024/02/13 09:34:41;;;;;;;3.60;1.50;;;18.10;38.70;;;;;;5073749;28;20905;-70
2024/02/13 09:37:09;;;;;;;5.40;1.40;;;17.70;38.20;;;;;;5073649;28;20427;-69
2024/02/13 09:39:36;;;;;;;5.87;2.37;;;17.60;38.60;;;;;;5073729;28;20466;-69
2024/02/13 09:42:04;;;;;;;5.80;2.33;;;17.80;38.10;;;;;;5073688;28;20503;-69
2024/02/13 09:44:32;;;;;;;4.30;2.30;;;18.20;38.40;;;;;;5073980;28;20502;-69
2024/02/13 09:47:00;;;;;;;6.13;2.57;;;18.60;37.80;;;;;;5073753;28;20546;-69
2024/02/13 09:49:31;;;;;;;5.07;2.27;;;18.90;35.70;;;;;;5073777;28;20460;-69
2024/02/13 09:52:02;;;;;;;5.23;2.10;;;18.60;36.80;;;;;;5073785;28;20464;-69
2024/02/13 09:54:31;;;;;;;3.10;1.60;;;19.00;37.00;;;;;;5073913;28;20517;-69
2024/02/13 09:57:01;;;;;;;10.70;3.40;;;19.30;35.50;;;;;;5073356;28;20439;-69
2024/02/13 09:59:29;;;;;;;5.43;1.87;;;19.90;35.10;;;;;;5073887;28;20436;-70
2024/02/13 10:01:59;;;;;;;5.80;1.67;;;20.50;34.90;;;;;;5073560;28;20436;-69
2024/02/13 10:04:26;;;;;;;5.87;1.43;;;21.00;33.00;;;;;;5073364;28;20436;-70
2024/02/13 10:06:55;;;;;;;5.80;1.23;;;21.40;32.40;;;;;;5073540;28;20855;-69
2024/02/13 10:09:22;;;;;;;2.90;1.10;;;21.70;30.80;;;;;;5073161;28;20474;-70
2024/02/13 10:11:51;;;;;;;5.57;1.10;;;22.10;30.60;;;;;;5073408;28;20502;-69
2024/02/13 10:14:21;;;;;;;4.33;0.90;;;22.50;29.20;;;;;;5073363;28;20820;-70
2024/02/13 10:16:50;;;;;;;5.00;1.13;;;22.70;28.30;;;;;;5073682;28;20424;-69
2024/02/13 10:19:19;;;;;;;4.33;0.90;;;23.10;28.50;;;;;;5073406;28;20498;-70
2024/02/13 10:21:49;;;;;;;2.90;0.70;;;23.40;28.00;;;;;;5073297;28;20443;-69
2024/02/13 10:24:18;;;;;;;3.80;0.90;;;23.80;27.50;;;;;;5072928;28;20432;-70
2024/02/13 10:26:47;;;;;;;4.60;0.90;;;24.10;25.80;;;;;;5073342;28;20783;-70
2024/02/13 10:29:14;;;;;;;2.53;0.80;;;24.30;25.20;;;;;;5073247;28;20542;-70
2024/02/13 10:31:44;;;;;;;4.47;0.97;;;24.40;25.40;;;;;;5073320;28;20518;-68
2024/02/13 10:34:11;;;;;;;3.50;1.20;;;24.60;25.20;;;;;;5073573;28;20467;-69
2024/02/13 10:36:43;;;;;;;5.43;1.30;;;24.80;24.50;;;;;;5073223;28;20463;-69
2024/02/13 10:39:14;;;;;;;6.97;1.17;;;24.90;24.50;;;;;;5072864;28;20515;-68
2024/02/13 10:41:45;;;;;;;3.30;0.97;;;24.80;23.90;;;;;;5073079;28;20472;-68
2024/02/13 10:44:13;;;;;;;4.67;1.00;;;24.50;23.80;;;;;;5073204;28;20467;-68
2024/02/13 10:46:43;;;;;;;4.00;1.33;;;23.60;23.20;;;;;;5072742;28;20948;-69
2024/02/13 10:49:21;;;;;;;5.87;1.43;;;22.80;24.30;;;;;;5072803;28;20514;-69
2024/02/13 10:51:48;;;;;;;2.83;1.00;;;22.40;24.90;;;;;;5073128;28;20470;-69
2024/02/13 10:54:23;;;;;;;2.20;0.87;;;22.40;25.60;;;;;;5072885;28;20527;-69
2024/02/13 10:56:54;;;;;;;5.37;1.63;;;22.80;26.20;;;;;;5072774;28;20423;-69
2024/02/13 10:59:23;;;;;;;3.00;1.03;;;23.30;26.40;;;;;;5072720;28;20428;-69
2024/02/13 11:01:54;;;;;;;5.70;1.40;;;23.80;25.50;;;;;;5073055;28;20442;-69
2024/02/13 11:04:22;;;;;;;2.80;0.93;;;24.20;24.90;;;;;;5072404;28;20511;-69
2024/02/13 11:06:49;;;;;;;3.70;1.13;;;24.30;24.40;;;;;;5072916;28;20427;-68
2024/02/13 11:09:18;;;;;;;3.20;0.97;;;24.20;23.40;;;;;;5072742;28;20470;-68
2024/02/13 11:11:45;;;;;;;4.20;1.40;;;24.30;23.70;;;;;;5072943;28;20486;-69
2024/02/13 11:14:18;;;;;;;4.37;1.10;;;24.30;23.50;;;;;;5072963;28;20844;-69
2024/02/13 11:16:52;;;;;;;5.40;1.60;;;24.60;23.70;;;;;;5072945;28;20443;-68
2024/02/13 11:19:20;;;;;;;2.70;1.20;;;24.30;23.10;;;;;;5072872;28;20515;-69
2024/02/13 11:21:51;;;;;;;2.37;1.00;;;23.60;23.70;;;;;;5072795;28;20515;-68
2024/02/13 11:24:22;;;;;;;5.47;1.47;;;22.80;24.20;;;;;;5076763;28;20511;-69
2024/02/13 11:26:49;;;;;;;3.53;1.40;;;22.00;23.70;;;;;;5076189;28;20432;-68
2024/02/13 11:29:20;;;;;;;2.47;0.90;;;21.40;24.70;;;;;;5076318;28;20562;-68
2024/02/13 11:31:57;;;;;;;4.20;0.90;;;21.20;25.40;;;;;;5076156;28;20501;-68
2024/02/13 11:34:44;;;;;;;5.73;1.33;;;21.10;25.10;;;;;;5076616;28;20510;-68
2024/02/13 11:37:18;;;;;;;4.77;1.13;;;20.70;25.20;;;;;;5076417;28;20455;-69
2024/02/13 11:39:47;;;;;;;2.73;0.80;;;20.50;25.60;;;;;;5076586;28;20435;-68
2024/02/13 11:42:19;;;;;;;2.60;1.20;;;20.20;25.40;;;;;;5076154;28;20471;-68
2024/02/13 11:44:51;;;;;;;3.10;1.30;;;20.00;26.20;;;;;;5075964;28;20452;-68
2024/02/13 11:47:19;;;;;;;5.00;1.23;;;19.70;26.90;;;;;;5075784;28;20478;-68
2024/02/13 11:49:50;;;;;;;4.03;1.30;;;19.30;26.80;;;;;;5075964;28;20925;-68
2024/02/13 11:52:17;;;;;;;4.80;1.00;;;18.90;26.90;;;;;;5075809;28;20522;-68
2024/02/13 11:54:46;;;;;;;4.73;1.23;;;18.50;27.20;;;;;;5075831;28;20522;-70
2024/02/13 11:57:13;;;;;;;5.50;1.27;;;18.60;28.50;;;;;;5076129;28;20432;-68
2024/02/13 11:59:41;;;;;;;4.20;2.03;;;19.20;29.20;;;;;;5076028;28;20471;-68
2024/02/13 12:02:13;;;;;;;6.43;1.90;;;19.90;28.30;;;;;;5075544;28;20436;-69
2024/02/13 12:04:42;;;;;;;3.87;1.20;;;20.70;27.30;;;;;;5075490;28;20435;-68
2024/02/13 12:07:11;;;;;;;4.67;1.30;;;21.40;27.50;;;;;;5075740;28;20997;-69
2024/02/13 12:09:40;;;;;;;3.47;1.00;;;21.70;26.60;;;;;;5075652;28;20546;-69
2024/02/13 12:12:09;;;;;;;3.63;1.50;;;22.10;25.90;;;;;;5075528;28;20991;-69
2024/02/13 12:14:39;;;;;;;4.53;1.20;;;22.50;26.10;;;;;;5075306;28;20435;-68
2024/02/13 12:17:07;;;;;;;3.27;1.10;;;22.70;25.40;;;;;;5075502;28;20432;-68
2024/02/13 12:19:38;;;;;;;4.40;1.40;;;22.90;24.60;;;;;;5075153;28;20447;-68
2024/02/13 12:22:09;;;;;;;3.40;1.33;;;22.60;24.30;;;;;;5075932;28;20486;-69
2024/02/13 12:24:39;;;;;;;4.67;1.23;;;22.20;24.70;;;;;;5075196;28;20428;-68
2024/02/13 12:27:10;;;;;;;4.83;1.30;;;21.70;24.30;;;;;;5075556;28;20518;-69
2024/02/13 12:29:41;;;;;;;5.80;1.33;;;21.20;24.30;;;;;;5075445;28;20458;-69
2024/02/13 12:32:09;;;;;;;5.57;1.17;;;20.60;24.30;;;;;;5075814;28;20772;-68
2024/02/13 12:34:38;;;;;;;3.27;0.97;;;19.90;25.00;;;;;;5073743;28;20427;-68
2024/02/13 12:37:10;;;;;;;3.30;1.10;;;19.40;25.80;;;;;;5075038;28;20789;-68
2024/02/13 12:39:37;;;;;;;5.63;1.30;;;19.50;26.70;;;;;;5075279;28;20428;-71
2024/02/13 12:42:10;;;;;;;2.47;0.90;;;19.80;26.60;;;;;;5074840;28;20558;-68
2024/02/13 12:44:38;;;;;;;3.03;0.90;;;20.20;26.60;;;;;;5075181;28;20424;-69
2024/02/13 12:47:07;;;;;;;5.13;1.33;;;20.70;26.00;;;;;;5074847;28;20930;-69
2024/02/13 12:49:35;;;;;;;3.23;0.80;;;21.10;25.10;;;;;;5074988;28;20475;-69
2024/02/13 12:52:05;;;;;;;4.40;1.17;;;21.40;24.20;;;;;;5074669;28;20471;-69
2024/02/13 12:54:32;;;;;;;3.53;0.97;;;21.10;23.20;;;;;;5074908;28;20459;-69
2024/02/13 12:57:00;;;;;;;3.97;1.40;;;20.40;24.00;;;;;;5075318;28;20494;-69
2024/02/13 12:59:27;;;;;;;2.00;0.73;;;19.90;24.70;;;;;;5074484;28;20443;-69
2024/02/13 13:01:58;;;;;;;4.13;1.20;;;19.40;25.00;;;;;;5074433;28;20527;-69
2024/02/13 13:04:28;;;;;;;3.47;1.40;;;18.90;26.10;;;;;;5074563;28;20424;-69